FMMAFMEE

Guest
Details From FMMA - Antananarivo Arivonimamo
To FMEE - St Denis Gillot
Flight Number -
Tags Generated
Created
Modified
Stats Distance 484 nm / 896 km
Max Altitude 0 ft / 0 m
Waypoints 3
Social Downloads 0
Likes 0
Share VATSIM

Download

Looking for another format? Having issues loading an existing format? Contact us
Advertisement - Login to hide

Notes

Generated

Route

FMMA SD001 FMEE

ID Type Via Altitude Latitude Longitude Leg Dist Tot Dist Heading (true) Name
O FMMA APT - 0 ft / 0 m -19.02572˚ 47.16040˚ - 0 nm - -
SD001 FIX - 0 ft / 0 m -20.87819˚ 55.49145˚ 483 nm 483 nm 105° / 102° -
O FMEE APT - 0 ft / 0 m -20.88418˚ 55.50412˚ 0 nm 484 nm 117° / 117° -

Altitude Profile

Advertisement - Login to hide

Weather


0- 5 10 15 20 25 30 35+ Temperature / ° C

Clouds and Precipitation
Forecast for 2017-12-16 06:00 UTC. Updated 32 minutes ago

Ground ~20,000 ft ~40,000 ft Winds

FMMA

Details ICAO FMMA
Name ANTANANARIVO ARIVONIMAMO
Region Comoros, Mayotte, Réunion and Madagascar
Timezone Indian/Antananarivo (UTC+3.0)
Stats Elevation 4,757 ft / 1,450 m (AMSL)
Location -19.029001° 47.171811°
Runways 1
Magnetic Variation 15.372° W

METAR

Not found

TAF

Not found

Departure Runways

ID Width Length Bearing (true) Bearing (mag) Surface Threshold Offset Overrun Length
12 148 ft / 45 m 8,231 ft / 2,509 m 106.92° 122.29° Asphalt 0 ft / 0 m 665 ft / 203 m
30 148 ft / 45 m 8,231 ft / 2,509 m 286.91° 302.28° Asphalt 0 ft / 0 m 595 ft / 181 m

FMEE

Details ICAO FMEE (RUN)
Name St Denis Gillot
Region Comoros, Mayotte, Réunion and Madagascar
Timezone Indian/Reunion (UTC+4.0)
Stats Elevation 66 ft / 20 m (AMSL)
Location -20.889313° 55.517752°
Runways 2
Magnetic Variation 18.981° W

METAR

FMEE 160130Z AUTO 18005KT CAVOK 23/20 Q1015 NOSIG

Decode

TAF

TAF FMEE 152300Z 1600/1706 15007KT 9999 FEW030 SCT050 BKN300= TAF FIMP 152350Z 1600/1706 06008KT 9999 SCT016 PROB30 TEMPO 1618/1702 7000 -SHRA BKN015 BKN050

Decode

Destination Runways

ID Width Length Bearing (true) Bearing (mag) Surface Threshold Offset Overrun Length
12 148 ft / 45 m 10,581 ft / 3,225 m 102.26° 121.24° Asphalt 397 ft / 121 m 148 ft / 45 m
14 148 ft / 45 m 8,842 ft / 2,695 m 116.55° 135.53° Asphalt 338 ft / 103 m 98 ft / 30 m
30 148 ft / 45 m 10,581 ft / 3,225 m 282.25° 301.23° Asphalt 0 ft / 0 m 0 ft / 0 m
32 148 ft / 45 m 8,842 ft / 2,695 m 296.54° 315.52° Asphalt 1,175 ft / 358 m 377 ft / 115 m

Approach Navaids

Runway Type Ident Frequency Range Bearing (true) Bearing (mag) Slope Elevation
14 Localiser SD 110.30 MHz 18 nm / 33 km 116.63° 135.61° - 66 ft / 20 m (AMSL)
14 Glidescope SD 110.30 MHz 10 nm / 19 km 116.55° 135.53° 3.00° 46 ft / 14 m (AMSL)
14 DME SD 110.30 MHz 18 nm / 33 km - - - 46 ft / 14 m (AMSL)

Popular Alternatives